Time;durP1;ratioP1;P1;durP2;ratioP2;P2;SDS_P1;SDS_P2;PMS_P1;PMS_P2;Temp;Humidity;BMP_temperature;BMP_pressure;BME280_temperature;BME280_humidity;BME280_pressure;Samples;Min_cycle;Max_cycle;Signal;HPM_P1;HPM_P2
2021/08/07 00:01:43;;;;;;;13.83;6.60;;;;;;;21.28;100.00;99851.66;1812048;79;20941;-83
2021/08/07 00:04:09;;;;;;;17.17;7.40;;;;;;;21.24;100.00;99845.30;1812562;79;20952;-84
2021/08/07 00:06:35;;;;;;;15.85;6.25;;;;;;;21.23;100.00;99842.89;1812747;79;20975;-84
2021/08/07 00:09:01;;;;;;;18.55;7.30;;;;;;;21.20;100.00;99836.16;1812687;78;20890;-88
2021/08/07 00:11:27;;;;;;;17.48;6.90;;;;;;;21.20;100.00;99846.33;1812761;79;21041;-85
2021/08/07 00:13:52;;;;;;;18.25;6.85;;;;;;;21.17;100.00;99851.14;1812614;79;20932;-82
2021/08/07 00:16:18;;;;;;;15.48;5.92;;;;;;;21.15;100.00;99844.66;1812647;79;20850;-87
2021/08/07 00:18:44;;;;;;;15.03;6.25;;;;;;;21.17;100.00;99845.66;1812653;79;20931;-82
2021/08/07 00:21:10;;;;;;;17.57;6.85;;;;;;;21.20;100.00;99855.92;1813039;79;21480;-89
2021/08/07 00:23:36;;;;;;;21.00;6.60;;;;;;;21.22;100.00;99853.06;1828275;78;21094;-83
2021/08/07 00:26:02;;;;;;;17.50;7.00;;;;;;;21.25;100.00;99851.56;1815110;78;20852;-84
2021/08/07 00:28:37;;;;;;;17.35;7.35;;;;;;;21.30;100.00;99850.74;1832210;78;21668;-85
2021/08/07 00:31:03;;;;;;;15.48;6.65;;;;;;;21.34;100.00;99857.69;1832079;78;20987;-83
2021/08/07 00:33:32;;;;;;;18.52;7.05;;;;;;;21.38;100.00;99860.55;1832416;78;20840;-84
2021/08/07 00:35:58;;;;;;;15.15;6.60;;;;;;;21.41;100.00;99849.67;1832152;78;21239;-85
2021/08/07 00:38:24;;;;;;;16.73;6.62;;;;;;;21.43;100.00;99844.64;1832362;78;20927;-85
2021/08/07 00:40:51;;;;;;;13.65;6.55;;;;;;;21.42;100.00;99853.23;1825992;77;21026;-84
2021/08/07 00:43:18;;;;;;;14.30;6.33;;;;;;;21.42;100.00;99858.72;1806697;78;21506;-85
2021/08/07 00:45:44;;;;;;;16.32;6.33;;;;;;;21.38;100.00;99858.59;1797124;78;21029;-83
2021/08/07 00:48:10;;;;;;;15.30;6.95;;;;;;;21.37;100.00;99875.41;1832280;78;21102;-86
2021/08/07 00:50:37;;;;;;;15.63;6.40;;;;;;;21.36;100.00;99888.33;1831929;78;20992;-86
2021/08/07 00:53:04;;;;;;;16.97;7.08;;;;;;;21.38;100.00;99892.86;1832344;78;20938;-84
2021/08/07 00:55:31;;;;;;;12.00;6.53;;;;;;;21.40;100.00;99897.43;1832329;78;21131;-85
2021/08/07 00:57:57;;;;;;;20.32;7.45;;;;;;;21.44;100.00;99896.15;1826545;78;20984;-82
2021/08/07 01:00:24;;;;;;;19.32;7.00;;;;;;;21.47;100.00;99883.94;1805528;78;21085;-85
2021/08/07 01:03:10;;;;;;;15.20;6.42;;;;;;;21.51;100.00;99888.14;1821191;78;21007;-84
2021/08/07 01:05:50;;;;;;;18.60;8.13;;;;;;;21.53;100.00;99888.02;1816024;79;21369;-83
2021/08/07 01:08:19;;;;;;;21.02;7.28;;;;;;;21.51;100.00;99887.55;1818045;79;21082;-84
2021/08/07 01:11:14;;;;;;;22.95;8.33;;;;;;;21.52;100.00;99897.95;1776667;80;21149;-84
2021/08/07 01:13:46;;;;;;;21.00;8.43;;;;;;;21.49;100.00;99874.77;1756835;80;21086;-84
2021/08/07 01:16:26;;;;;;;24.37;8.93;;;;;;;21.48;100.00;99869.06;1752935;81;21052;-86
2021/08/07 01:18:53;;;;;;;30.82;8.80;;;;;;;21.48;100.00;99899.80;1757162;80;21080;-83
2021/08/07 01:21:30;;;;;;;23.30;8.35;;;;;;;21.46;100.00;99902.88;1760461;80;21021;-84
2021/08/07 01:24:25;;;;;;;26.62;9.73;;;;;;;21.43;100.00;99872.06;1758870;80;21012;-83
2021/08/07 01:27:26;;;;;;;18.65;8.78;;;;;;;21.40;100.00;99878.82;1783445;80;21980;-86
2021/08/07 01:29:54;;;;;;;19.52;7.97;;;;;;;21.41;100.00;99884.52;1781292;80;21035;-87
2021/08/07 01:32:30;;;;;;;20.17;7.78;;;;;;;21.41;100.00;99890.79;1758348;80;21045;-85
2021/08/07 01:34:57;;;;;;;23.47;8.65;;;;;;;21.45;100.00;99884.05;1776204;80;21072;-83
2021/08/07 01:37:23;;;;;;;21.52;9.05;;;;;;;21.43;100.00;99878.91;1758326;80;21049;-81
2021/08/07 01:39:53;;;;;;;25.97;8.75;;;;;;;21.43;100.00;99879.48;1756800;81;21061;-83
2021/08/07 01:42:19;;;;;;;22.30;8.83;;;;;;;21.39;100.00;99883.52;1752192;81;21023;-84
2021/08/07 01:44:45;;;;;;;18.50;9.20;;;;;;;21.38;100.00;99886.59;1741422;82;21066;-83
2021/08/07 01:47:34;;;;;;;20.02;8.63;;;;;;;21.37;100.00;99887.75;1744563;81;21000;-83
2021/08/07 01:50:14;;;;;;;23.50;10.15;;;;;;;21.37;100.00;99880.89;1747183;81;21059;-83
2021/08/07 01:52:47;;;;;;;19.90;9.40;;;;;;;21.37;100.00;99869.93;1635949;87;21078;-85
2021/08/07 01:55:23;;;;;;;20.12;9.43;;;;;;;21.29;100.00;99864.20;1646019;86;21027;-84
2021/08/07 01:58:01;;;;;;;25.75;9.68;;;;;;;21.28;100.00;99879.06;1659367;85;21030;-84
2021/08/07 02:00:27;;;;;;;19.98;9.45;;;;;;;21.28;100.00;99894.14;1637242;87;21070;-82
2021/08/07 02:02:54;;;;;;;22.13;9.60;;;;;;;21.31;100.00;99893.44;1642157;87;21062;-86
2021/08/07 02:05:21;;;;;;;21.65;9.48;;;;;;;21.32;100.00;99899.16;1657967;85;21982;-84
2021/08/07 02:07:51;;;;;;;24.98;9.30;;;;;;;21.31;100.00;99909.09;1670894;85;21044;-85
2021/08/07 02:10:18;;;;;;;21.77;9.33;;;;;;;21.29;100.00;99898.47;1670883;85;21066;-85
2021/08/07 02:12:46;;;;;;;22.15;10.15;;;;;;;21.29;100.00;99897.67;1670753;85;21689;-83
2021/08/07 02:15:18;;;;;;;24.20;9.03;;;;;;;21.29;100.00;99895.72;1747174;82;21034;-83
2021/08/07 02:17:45;;;;;;;26.15;10.28;;;;;;;21.33;100.00;99897.22;1751246;82;21297;-83
2021/08/07 02:20:16;;;;;;;21.12;9.65;;;;;;;21.37;100.00;99895.97;1750812;82;21054;-87
2021/08/07 02:22:46;;;;;;;17.90;9.60;;;;;;;21.37;100.00;99893.23;1750786;82;21051;-83
2021/08/07 02:25:13;;;;;;;20.97;9.20;;;;;;;21.36;100.00;99902.03;1750887;82;21046;-91
2021/08/07 02:27:40;;;;;;;22.22;9.35;;;;;;;21.38;100.00;99905.20;1750735;82;21062;-84
2021/08/07 02:30:08;;;;;;;20.32;9.13;;;;;;;21.36;100.00;99901.20;1788943;78;21056;-86
2021/08/07 02:32:37;;;;;;;24.82;9.30;;;;;;;21.38;100.00;99898.92;1832739;78;20984;-83
2021/08/07 02:35:07;;;;;;;20.97;9.78;;;;;;;21.35;100.00;99887.26;1832608;77;21031;-83
2021/08/07 02:37:34;;;;;;;26.50;9.80;;;;;;;21.41;100.00;99892.73;1832704;77;20966;-84
2021/08/07 02:40:04;;;;;;;22.65;10.50;;;;;;;21.44;100.00;99892.86;1832577;77;21089;-88
2021/08/07 02:42:31;;;;;;;24.92;10.55;;;;;;;21.41;100.00;99896.27;1832721;77;21020;-85
2021/08/07 02:44:59;;;;;;;21.93;10.38;;;;;;;21.35;100.00;99903.70;1832609;77;20977;-84
2021/08/07 02:47:26;;;;;;;29.85;10.35;;;;;;;21.33;100.00;99906.81;1820862;78;21603;-85
2021/08/07 02:49:53;;;;;;;31.10;10.23;;;;;;;21.29;100.00;99903.95;1821003;78;21049;-82
2021/08/07 02:52:20;;;;;;;26.62;9.50;;;;;;;21.32;100.00;99904.65;1820723;78;21051;-84
2021/08/07 02:54:49;;;;;;;23.50;9.93;;;;;;;21.39;100.00;99906.02;1820910;78;21800;-85
2021/08/07 02:57:15;;;;;;;28.30;10.15;;;;;;;21.44;100.00;99910.68;1820665;78;21157;-83
2021/08/07 02:59:41;;;;;;;22.95;10.25;;;;;;;21.48;100.00;99907.45;1821153;78;21434;-84
2021/08/07 03:02:07;;;;;;;29.23;10.53;;;;;;;21.47;100.00;99909.16;1820947;78;20875;-84
2021/08/07 03:04:34;;;;;;;21.60;9.23;;;;;;;21.48;100.00;99902.55;1820843;78;21045;-83
2021/08/07 03:07:00;;;;;;;20.65;10.20;;;;;;;21.51;100.00;99894.41;1821109;78;21122;-84
2021/08/07 03:09:26;;;;;;;21.75;9.38;;;;;;;21.58;100.00;99891.64;1820919;78;20938;-85
2021/08/07 03:11:52;;;;;;;22.50;9.20;;;;;;;21.58;100.00;99900.66;1821082;78;20914;-86
2021/08/07 03:14:18;;;;;;;24.18;9.75;;;;;;;21.59;100.00;99898.16;1821089;78;20911;-84
2021/08/07 03:16:44;;;;;;;16.90;8.85;;;;;;;21.62;100.00;99891.97;1821184;78;21125;-84
2021/08/07 03:19:09;;;;;;;28.10;10.10;;;;;;;21.69;100.00;99889.98;1821053;77;21113;-85
2021/08/07 03:21:35;;;;;;;24.98;9.58;;;;;;;21.76;100.00;99895.05;1794028;78;21636;-84
2021/08/07 03:24:01;;;;;;;22.35;9.25;;;;;;;21.86;100.00;99897.88;1820913;78;20902;-88
2021/08/07 03:26:27;;;;;;;30.43;9.95;;;;;;;21.94;100.00;99907.06;1821120;78;21041;-85
2021/08/07 03:28:53;;;;;;;25.20;10.18;;;;;;;22.07;100.00;99919.56;1821071;78;21624;-85
2021/08/07 03:31:19;;;;;;;23.52;9.68;;;;;;;22.21;100.00;99915.05;1821125;78;21074;-85
2021/08/07 03:33:47;;;;;;;27.62;9.88;;;;;;;22.36;100.00;99905.99;1820972;78;20985;-84
2021/08/07 03:36:13;;;;;;;20.95;9.83;;;;;;;22.54;100.00;99906.98;1788796;80;21120;-84
2021/08/07 03:38:39;;;;;;;24.35;9.50;;;;;;;22.67;100.00;99907.87;1770997;80;20863;-85
2021/08/07 03:41:05;;;;;;;23.83;9.03;;;;;;;22.86;100.00;99913.98;1767690;79;20974;-84
2021/08/07 03:43:31;;;;;;;20.97;9.18;;;;;;;23.26;100.00;99912.08;1767740;81;21063;-86
2021/08/07 03:45:57;;;;;;;27.52;9.73;;;;;;;23.60;100.00;99912.36;1767700;81;20890;-87
2021/08/07 03:48:23;;;;;;;26.05;9.60;;;;;;;23.98;100.00;99910.13;1767919;81;20930;-84
2021/08/07 03:50:49;;;;;;;24.45;9.63;;;;;;;24.47;100.00;99901.90;1768273;81;21491;-84
2021/08/07 03:53:15;;;;;;;31.80;9.45;;;;;;;25.00;100.00;99897.48;1767446;81;20986;-87
2021/08/07 03:55:42;;;;;;;22.20;9.80;;;;;;;25.54;100.00;99892.83;1767559;81;21853;-87
2021/08/07 03:58:09;;;;;;;21.42;10.20;;;;;;;25.98;100.00;99883.81;1689065;84;21033;-87
2021/08/07 04:00:35;;;;;;;26.62;10.18;;;;;;;26.41;100.00;99881.35;1692862;84;20957;-85
2021/08/07 04:03:02;;;;;;;26.73;10.20;;;;;;;26.82;100.00;99881.23;1692654;84;21036;-87
2021/08/07 04:05:28;;;;;;;24.43;9.83;;;;;;;27.18;100.00;99882.22;1692749;84;21029;-86
2021/08/07 04:08:11;;;;;;;18.20;9.13;;;;;;;27.61;100.00;99885.08;1692719;84;21965;-86
2021/08/07 04:10:39;;;;;;;21.52;10.13;;;;;;;28.02;100.00;99865.95;1692576;84;21056;-87
2021/08/07 04:13:05;;;;;;;25.15;9.85;;;;;;;28.43;100.00;99862.17;1669727;84;21043;-86
2021/08/07 04:15:31;;;;;;;23.98;10.18;;;;;;;28.83;100.00;99864.84;1692801;84;21536;-88
2021/08/07 04:17:57;;;;;;;22.70;10.20;;;;;;;29.23;100.00;99859.92;1692728;84;21056;-91
2021/08/07 04:20:24;;;;;;;26.77;9.63;;;;;;;29.42;100.00;99861.60;1692786;84;21042;-86
2021/08/07 04:22:50;;;;;;;20.62;9.93;;;;;;;29.58;100.00;99864.47;1692586;84;21083;-83
2021/08/07 04:25:17;;;;;;;20.90;9.53;;;;;;;29.67;99.90;99866.22;1692805;84;21588;-85
2021/08/07 04:27:44;;;;;;;19.98;9.75;;;;;;;30.00;98.12;99866.17;1692633;84;21079;-86
2021/08/07 04:30:11;;;;;;;33.98;10.20;;;;;;;30.24;92.15;99867.17;1681397;85;21093;-88
2021/08/07 04:32:38;;;;;;;19.30;9.88;;;;;;;30.48;93.05;99868.72;1680624;84;21431;-84
2021/08/07 04:35:06;;;;;;;18.27;8.70;;;;;;;30.52;87.81;99868.86;1678912;85;21056;-82
2021/08/07 04:37:33;;;;;;;24.72;9.25;;;;;;;30.57;87.82;99857.89;1679089;85;21568;-87
2021/08/07 04:39:59;;;;;;;21.45;8.55;;;;;;;30.42;84.45;99865.59;1675228;85;21531;-85
2021/08/07 04:42:25;;;;;;;18.40;9.20;;;;;;;30.49;84.93;99871.69;1679106;85;21004;-83
2021/08/07 04:44:51;;;;;;;19.98;8.85;;;;;;;30.63;83.27;99865.19;1656094;85;21670;-86
2021/08/07 04:47:16;;;;;;;25.82;9.55;;;;;;;30.92;84.56;99865.67;1655901;85;21069;-85
2021/08/07 04:49:44;;;;;;;19.65;8.95;;;;;;;31.64;79.23;99873.84;1679300;85;20900;-87
2021/08/07 04:52:10;;;;;;;26.80;8.58;;;;;;;32.14;77.52;99874.44;1678955;85;21060;-86
2021/08/07 04:54:38;;;;;;;23.55;9.10;;;;;;;33.00;72.42;99871.45;1685784;81;20998;-86
2021/08/07 04:57:04;;;;;;;25.90;8.50;;;;;;;33.61;67.86;99878.52;1727492;83;21822;-85
2021/08/07 04:59:29;;;;;;;20.75;9.53;;;;;;;34.01;62.26;99883.33;1692429;83;20925;-86
2021/08/07 05:01:55;;;;;;;26.02;9.38;;;;;;;34.68;62.42;99889.00;1716175;83;20862;-85
2021/08/07 05:04:21;;;;;;;20.17;9.45;;;;;;;35.41;58.83;99884.47;1716729;83;21044;-86
2021/08/07 05:06:47;;;;;;;28.32;9.40;;;;;;;36.02;55.93;99884.56;1716662;83;20957;-86
2021/08/07 05:09:13;;;;;;;28.87;10.30;;;;;;;36.31;50.70;99881.59;1716739;83;21864;-85
2021/08/07 05:11:39;;;;;;;16.87;9.48;;;;;;;36.42;49.73;99874.20;1716554;82;20873;-87
2021/08/07 05:14:05;;;;;;;17.90;9.60;;;;;;;36.73;49.58;99872.89;1716587;83;20960;-84
2021/08/07 05:16:30;;;;;;;19.52;9.83;;;;;;;37.26;47.74;99867.29;1716422;82;21057;-85
2021/08/07 05:18:56;;;;;;;22.90;9.48;;;;;;;37.45;46.04;99868.16;1716617;83;21008;-87
2021/08/07 05:21:22;;;;;;;26.62;10.05;;;;;;;37.57;44.98;99866.52;1716599;83;21184;-88
2021/08/07 05:23:48;;;;;;;20.55;9.38;;;;;;;37.44;43.51;99865.17;1716570;83;21722;-86
2021/08/07 05:26:14;;;;;;;22.32;10.13;;;;;;;37.82;44.29;99874.69;1718610;83;21001;-85
2021/08/07 05:28:42;;;;;;;21.35;10.20;;;;;;;38.36;43.19;99872.45;1728679;83;20927;-88
2021/08/07 05:31:08;;;;;;;29.20;11.30;;;;;;;38.73;41.78;99873.84;1728660;82;21076;-87
2021/08/07 05:33:36;;;;;;;22.52;11.38;;;;;;;38.83;40.49;99876.81;1728753;81;21089;-85
2021/08/07 05:36:02;;;;;;;25.45;11.70;;;;;;;38.62;39.42;99873.72;1693614;84;21552;-90
2021/08/07 05:38:28;;;;;;;36.45;11.95;;;;;;;38.69;39.01;99874.01;1693723;84;21041;-87
2021/08/07 05:40:53;;;;;;;28.32;12.58;;;;;;;38.80;37.24;99874.31;1693880;83;20969;-87
2021/08/07 05:43:19;;;;;;;24.98;12.20;;;;;;;38.19;35.90;99879.01;1693364;83;20988;-80
2021/08/07 05:45:45;;;;;;;36.45;12.18;;;;;;;37.94;36.58;99887.87;1693645;84;21162;-81
2021/08/07 05:48:12;;;;;;;30.20;13.53;;;;;;;37.99;36.77;99880.85;1693545;84;20906;-81
2021/08/07 05:50:38;;;;;;;26.87;12.45;;;;;;;38.12;36.06;99879.30;1693322;83;21560;-80
2021/08/07 05:53:04;;;;;;;30.00;11.90;;;;;;;38.20;35.12;99879.16;1693670;83;21036;-78
2021/08/07 05:55:30;;;;;;;22.25;11.90;;;;;;;38.42;34.95;99874.83;1693615;84;20890;-80
2021/08/07 05:57:58;;;;;;;29.87;12.55;;;;;;;38.52;35.48;99881.23;1702399;82;21932;-79
2021/08/07 06:00:24;;;;;;;34.13;13.32;;;;;;;38.79;34.04;99881.18;1716399;82;21027;-80
2021/08/07 06:02:50;;;;;;;30.30;13.03;;;;;;;38.85;33.70;99883.55;1715407;83;20986;-79
2021/08/07 06:05:16;;;;;;;34.00;13.08;;;;;;;38.94;33.13;99884.78;1715497;83;20919;-79
2021/08/07 06:07:42;;;;;;;31.93;12.30;;;;;;;38.84;32.56;99883.38;1714976;83;21050;-79
2021/08/07 06:10:09;;;;;;;32.35;13.93;;;;;;;38.35;32.47;99877.91;1715491;83;21824;-79
2021/08/07 06:12:36;;;;;;;28.52;12.68;;;;;;;38.26;32.79;99872.28;1689758;83;21530;-78
2021/08/07 06:15:05;;;;;;;35.68;13.15;;;;;;;38.20;33.58;99874.16;1686954;85;21026;-79
2021/08/07 06:17:30;;;;;;;55.20;14.25;;;;;;;38.23;33.13;99871.18;1686589;85;21133;-79
2021/08/07 06:19:56;;;;;;;35.70;14.07;;;;;;;38.08;33.97;99867.42;1686744;85;20990;-79
2021/08/07 06:22:22;;;;;;;33.40;13.45;;;;;;;37.90;32.72;99857.67;1703247;83;21051;-79
2021/08/07 06:24:48;;;;;;;26.90;12.35;;;;;;;37.39;32.71;99855.33;1715493;83;20871;-79
2021/08/07 06:27:14;;;;;;;43.68;13.10;;;;;;;37.38;32.56;99852.34;1715464;83;20903;-79
2021/08/07 06:29:40;;;;;;;28.20;12.10;;;;;;;37.38;32.72;99849.53;1715375;82;20875;-80
2021/08/07 06:32:06;;;;;;;33.40;13.45;;;;;;;37.42;32.99;99843.79;1734693;78;21740;-79
2021/08/07 06:34:32;;;;;;;21.95;11.40;;;;;;;37.75;32.11;99847.50;1825887;78;21044;-79
2021/08/07 06:36:58;;;;;;;29.30;11.70;;;;;;;37.75;32.42;99844.05;1805642;78;21008;-80
2021/08/07 06:39:24;;;;;;;85.03;15.35;;;;;;;38.17;32.39;99842.09;1805577;78;21569;-80
2021/08/07 06:41:49;;;;;;;26.50;11.83;;;;;;;38.18;31.37;99843.65;1825869;78;20919;-80
2021/08/07 06:44:15;;;;;;;31.57;11.48;;;;;;;38.16;31.74;99846.17;1826055;77;20888;-78
2021/08/07 06:46:43;;;;;;;35.80;11.48;;;;;;;38.40;31.53;99840.08;1826021;78;20903;-79
2021/08/07 06:49:09;;;;;;;35.55;11.80;;;;;;;38.84;30.18;99838.28;1825409;78;20991;-79
2021/08/07 06:51:35;;;;;;;27.35;12.20;;;;;;;39.14;30.85;99840.58;1825948;78;20852;-80
2021/08/07 06:54:01;;;;;;;26.75;11.10;;;;;;;39.96;30.03;99833.11;1825818;78;20911;-79
2021/08/07 06:56:27;;;;;;;25.97;10.53;;;;;;;40.01;28.83;99828.85;1825902;78;21026;-80
2021/08/07 06:58:52;;;;;;;32.73;11.25;;;;;;;39.40;28.73;99835.32;1829788;78;21080;-80
2021/08/07 07:01:21;;;;;;;26.60;11.05;;;;;;;39.26;29.49;99836.76;1832339;77;20911;-79
2021/08/07 07:03:50;;;;;;;28.38;10.40;;;;;;;39.30;28.73;99838.83;1831808;78;20976;-79
2021/08/07 07:06:16;;;;;;;29.52;11.18;;;;;;;39.31;28.65;99842.42;1832209;77;21055;-79
2021/08/07 07:08:42;;;;;;;30.48;10.20;;;;;;;39.64;28.95;99845.98;1832402;77;21046;-80
2021/08/07 07:11:11;;;;;;;45.35;12.23;;;;;;;39.25;28.24;99857.13;1832528;77;21226;-79
2021/08/07 07:13:36;;;;;;;35.33;11.43;;;;;;;38.37;29.45;99859.30;1829936;77;21031;-79
2021/08/07 07:16:03;;;;;;;26.15;10.53;;;;;;;37.68;29.83;99869.05;1827437;78;20952;-80
2021/08/07 07:18:29;;;;;;;30.80;10.20;;;;;;;36.70;31.44;99873.19;1829728;78;20998;-79
2021/08/07 07:20:55;;;;;;;25.97;9.08;;;;;;;35.63;32.50;99879.63;1829851;78;21651;-80
2021/08/07 07:23:21;;;;;;;36.42;11.30;;;;;;;34.81;34.73;99895.45;1829739;77;21129;-79
2021/08/07 07:25:49;;;;;;;35.03;10.53;;;;;;;34.15;35.61;99898.97;1831315;78;21013;-80
2021/08/07 07:28:14;;;;;;;31.85;11.20;;;;;;;33.45;36.58;99903.01;1831885;77;21016;-80
2021/08/07 07:30:40;;;;;;;35.20;11.68;;;;;;;32.97;37.60;99909.97;1832095;77;20844;-79
2021/08/07 07:33:06;;;;;;;38.73;10.25;;;;;;;32.54;38.42;99908.81;1831770;77;21625;-79
2021/08/07 07:35:32;;;;;;;37.63;11.12;;;;;;;32.17;39.75;99903.48;1829302;78;20966;-81
2021/08/07 07:37:58;;;;;;;31.77;10.82;;;;;;;31.84;40.05;99912.94;1831864;77;21460;-79
2021/08/07 07:40:24;;;;;;;37.40;10.75;;;;;;;31.42;40.56;99917.94;1832321;77;20962;-80
2021/08/07 07:42:50;;;;;;;41.00;10.28;;;;;;;30.99;41.33;99918.45;1816275;78;20820;-79
2021/08/07 07:45:16;;;;;;;45.45;12.05;;;;;;;30.76;42.72;99918.46;1811079;77;20947;-78
2021/08/07 07:47:42;;;;;;;60.65;12.43;;;;;;;30.68;42.87;99910.03;1799444;79;21073;-78
2021/08/07 07:50:10;;;;;;;56.50;12.45;;;;;;;30.62;43.49;99904.73;1799382;79;21019;-79
2021/08/07 07:52:35;;;;;;;43.73;10.80;;;;;;;30.67;44.15;99909.04;1821952;77;20989;-78
2021/08/07 07:55:02;;;;;;;31.65;10.32;;;;;;;30.64;44.21;99922.38;1831616;77;20964;-78
2021/08/07 07:57:29;;;;;;;34.78;9.80;;;;;;;30.61;44.32;99915.66;1830551;77;21003;-78
2021/08/07 07:59:56;;;;;;;39.53;10.65;;;;;;;30.53;45.34;99919.70;1826065;77;21063;-77
2021/08/07 08:02:22;;;;;;;37.15;10.00;;;;;;;30.60;46.92;99923.82;1825709;78;20991;-78
2021/08/07 08:04:48;;;;;;;28.05;10.20;;;;;;;30.57;46.57;99919.69;1826113;78;21621;-77
2021/08/07 08:07:13;;;;;;;45.95;12.45;;;;;;;30.43;48.42;99917.83;1805498;78;20844;-76
2021/08/07 08:09:44;;;;;;;40.33;11.75;;;;;;;30.51;48.27;99901.27;1826292;78;21069;-77
2021/08/07 08:12:10;;;;;;;65.08;12.28;;;;;;;30.50;49.08;99906.62;1826036;77;22145;-78
2021/08/07 08:14:36;;;;;;;82.20;12.45;;;;;;;30.73;48.86;99910.95;1826158;78;20848;-80
2021/08/07 08:17:02;;;;;;;46.48;10.30;;;;;;;31.08;63.33;99914.55;1825082;78;20852;-78
2021/08/07 08:19:28;;;;;;;41.98;10.48;;;;;;;30.63;59.72;99915.25;1826209;78;21036;-78
2021/08/07 08:21:54;;;;;;;36.45;10.50;;;;;;;30.38;72.84;99926.61;1826011;78;20943;-78
2021/08/07 08:24:21;;;;;;;26.07;9.85;;;;;;;30.06;72.25;99942.92;1826113;77;21104;-79
2021/08/07 08:26:47;;;;;;;32.15;10.23;;;;;;;29.87;83.14;99935.32;1825795;78;20976;-80
2021/08/07 08:29:13;;;;;;;30.82;10.63;;;;;;;29.78;89.54;99934.99;1826043;78;20899;-78
2021/08/07 08:31:41;;;;;;;27.10;10.03;;;;;;;29.68;93.59;99947.55;1826162;78;20845;-79
2021/08/07 08:34:07;;;;;;;38.53;11.55;;;;;;;29.60;100.00;99957.89;1825906;78;20988;-79
2021/08/07 08:36:33;;;;;;;50.25;12.03;;;;;;;29.32;100.00;99967.92;1826062;78;21054;-75
2021/08/07 08:38:59;;;;;;;43.23;11.63;;;;;;;28.79;100.00;99985.48;1826166;77;20866;-79
2021/08/07 08:41:26;;;;;;;39.23;12.73;;;;;;;28.44;100.00;99989.09;1827012;77;20879;-80
2021/08/07 08:43:57;;;;;;;55.23;13.35;;;;;;;28.25;100.00;99982.72;1820362;78;21011;-81
2021/08/07 08:46:24;;;;;;;43.78;14.25;;;;;;;28.25;100.00;99970.25;1808501;78;21021;-79
2021/08/07 08:48:52;;;;;;;50.25;14.38;;;;;;;28.10;100.00;99960.35;1835769;78;21874;-80
2021/08/07 08:51:19;;;;;;;41.28;12.35;;;;;;;27.88;100.00;99963.67;1839788;77;21013;-79
2021/08/07 08:53:46;;;;;;;40.88;12.68;;;;;;;27.75;100.00;99954.14;1827593;78;21027;-80
2021/08/07 08:56:12;;;;;;;37.93;12.43;;;;;;;27.60;100.00;99945.79;1825951;78;21042;-79
2021/08/07 08:58:38;;;;;;;35.33;11.88;;;;;;;27.54;100.00;99938.27;1806408;78;21708;-79
2021/08/07 09:01:08;;;;;;;33.30;11.78;;;;;;;27.52;100.00;99939.23;1793511;79;21064;-79
2021/08/07 09:03:34;;;;;;;37.80;11.33;;;;;;;27.54;100.00;99937.67;1803050;78;21066;-79
2021/08/07 09:06:00;;;;;;;36.25;12.18;;;;;;;27.58;100.00;99941.23;1805494;78;21002;-79
2021/08/07 09:08:27;;;;;;;39.55;10.53;;;;;;;27.58;100.00;99949.53;1811615;78;21014;-79
2021/08/07 09:11:22;;;;;;;30.55;10.95;;;;;;;27.62;100.00;99958.66;1826108;78;20976;-79
2021/08/07 09:13:48;;;;;;;29.48;11.38;;;;;;;27.62;100.00;99978.04;1777331;80;21726;-79
2021/08/07 09:16:17;;;;;;;33.35;10.48;;;;;;;27.52;100.00;99991.23;1780218;80;21563;-81
2021/08/07 09:18:43;;;;;;;29.52;10.38;;;;;;;27.54;100.00;99986.11;1780147;80;21562;-79
2021/08/07 09:21:14;;;;;;;38.75;11.70;;;;;;;27.58;100.00;99985.52;1780217;80;20856;-78
2021/08/07 09:23:42;;;;;;;31.52;10.10;;;;;;;27.66;100.00;99979.42;1722779;83;21052;-78
2021/08/07 09:26:15;;;;;;;35.95;11.38;;;;;;;27.75;100.00;99983.21;1685779;85;21391;-78
2021/08/07 09:28:57;;;;;;;41.13;11.78;;;;;;;27.75;100.00;99979.05;1660319;86;21140;-78
2021/08/07 09:31:25;;;;;;;34.20;11.33;;;;;;;27.81;100.00;99970.59;1660502;86;21054;-79
2021/08/07 09:34:19;;;;;;;38.88;10.98;;;;;;;27.96;100.00;99967.26;1660310;86;21038;-79
2021/08/07 09:36:49;;;;;;;27.10;10.85;;;;;;;28.18;100.00;99975.80;1599774;89;21075;-79
2021/08/07 09:39:17;;;;;;;32.67;10.63;;;;;;;28.39;100.00;99983.33;1593915;90;21241;-78
2021/08/07 09:41:58;;;;;;;41.20;11.93;;;;;;;28.56;100.00;100008.69;1573251;90;21522;-79
2021/08/07 09:44:24;;;;;;;31.55;11.55;;;;;;;28.84;100.00;100014.81;1600911;88;21085;-81
2021/08/07 09:46:50;;;;;;;29.12;11.05;;;;;;;29.15;100.00;100015.95;1604440;88;21012;-79
2021/08/07 09:49:16;;;;;;;33.45;11.08;;;;;;;29.43;100.00;100021.42;1608552;88;21851;-78
2021/08/07 09:51:42;;;;;;;35.40;11.35;;;;;;;29.61;100.00;100019.96;1609455;88;21556;-79
2021/08/07 09:54:16;;;;;;;33.83;11.60;;;;;;;29.87;100.00;100029.78;1609795;88;21449;-79
2021/08/07 09:59:23;;;;;;;34.15;10.58;;;;;;;30.41;100.00;100030.84;1566237;90;21071;-79
2021/08/07 10:01:52;;;;;;;27.30;10.72;;;;;;;30.56;100.00;100032.91;1534288;92;21070;-79
2021/08/07 10:04:22;;;;;;;26.23;9.83;;;;;;;30.80;100.00;100030.34;1521503;94;21616;-80
2021/08/07 10:06:51;;;;;;;31.33;10.20;;;;;;;31.00;100.00;100026.59;1526812;92;21141;-80
2021/08/07 10:09:34;;;;;;;30.77;9.90;;;;;;;31.17;100.00;100013.67;1533192;92;21429;-79
2021/08/07 10:12:13;;;;;;;35.17;10.08;;;;;;;31.36;100.00;100004.55;1525475;93;21122;-79
2021/08/07 10:14:41;;;;;;;40.38;10.15;;;;;;;31.48;98.85;99985.90;1536037;93;21120;-78
2021/08/07 10:17:11;;;;;;;27.05;9.78;;;;;;;31.64;96.47;99984.67;1536257;93;21441;-79
2021/08/07 10:19:38;;;;;;;31.85;10.25;;;;;;;31.70;95.40;99971.06;1536837;92;21124;-80
2021/08/07 10:22:08;;;;;;;24.45;9.83;;;;;;;31.82;94.22;99976.66;1510041;94;21112;-76
2021/08/07 10:24:37;;;;;;;30.12;9.40;;;;;;;31.87;92.50;99972.80;1534913;88;21242;-79
2021/08/07 10:27:05;;;;;;;28.77;9.33;;;;;;;31.78;86.46;99966.19;1592627;90;21104;-79
2021/08/07 10:29:38;;;;;;;29.98;10.43;;;;;;;31.58;88.59;99954.91;1607738;89;21546;-79
2021/08/07 10:32:06;;;;;;;23.80;9.58;;;;;;;31.50;88.45;99945.86;1583398;89;21100;-80
2021/08/07 10:34:36;;;;;;;24.98;9.83;;;;;;;31.45;90.68;99948.52;1583398;90;21128;-79
2021/08/07 10:37:06;;;;;;;25.23;10.03;;;;;;;31.55;89.00;99954.36;1541310;92;21085;-79
2021/08/07 10:39:33;;;;;;;26.10;10.15;;;;;;;31.49;84.98;99965.79;1581595;90;21070;-79
2021/08/07 10:42:02;;;;;;;29.02;9.75;;;;;;;31.45;88.62;99970.02;1581514;90;21221;-78
2021/08/07 10:44:34;;;;;;;28.32;9.05;;;;;;;31.44;89.65;99968.42;1583644;89;21097;-78
2021/08/07 10:47:00;;;;;;;31.37;9.63;;;;;;;31.51;88.69;99964.17;1582796;89;21012;-79
2021/08/07 10:49:41;;;;;;;25.60;8.23;;;;;;;31.65;90.69;99970.94;1581430;90;21043;-80
2021/08/07 10:52:24;;;;;;;26.93;8.48;;;;;;;31.71;91.83;99970.45;1581721;90;21094;-80
2021/08/07 10:54:53;;;;;;;30.27;8.68;;;;;;;32.02;92.34;99981.77;1560125;92;21115;-80
2021/08/07 10:57:38;;;;;;;31.65;8.55;;;;;;;32.26;85.91;99976.22;1560322;92;21056;-79
2021/08/07 11:00:21;;;;;;;23.27;8.30;;;;;;;32.19;83.79;99977.13;1602015;88;21106;-80
2021/08/07 11:02:48;;;;;;;26.17;8.55;;;;;;;32.17;83.64;99980.16;1600578;89;21081;-79
2021/08/07 11:05:15;;;;;;;26.85;8.83;;;;;;;32.01;84.62;99982.98;1599967;89;21585;-76
2021/08/07 11:07:41;;;;;;;25.20;8.70;;;;;;;31.90;85.92;99983.14;1600248;89;21187;-78
2021/08/07 11:10:16;;;;;;;28.20;8.63;;;;;;;31.81;86.58;99975.88;1600139;89;21555;-78
2021/08/07 11:12:45;;;;;;;29.00;9.13;;;;;;;31.74;88.27;99982.15;1578092;89;21051;-78
2021/08/07 11:15:27;;;;;;;26.75;9.48;;;;;;;31.68;87.22;99981.25;1527192;94;21102;-78
2021/08/07 11:17:53;;;;;;;23.52;8.75;;;;;;;31.54;84.77;99975.86;1524467;94;21601;-79
2021/08/07 11:20:38;;;;;;;26.40;9.53;;;;;;;31.49;89.15;99979.72;1527719;94;21201;-79
2021/08/07 11:23:07;;;;;;;27.50;9.60;;;;;;;31.60;84.44;99971.41;1511814;92;21114;-76
2021/08/07 11:25:54;;;;;;;28.20;8.40;;;;;;;31.43;84.84;99973.81;1540296;92;21112;-78